createdAt,value
2023-03-31T00:01:19.571Z,97164.88
2023-03-31T00:03:48.106Z,97159.34
2023-03-31T00:06:21.702Z,97159.50
2023-03-31T00:08:52.342Z,97151.03
2023-03-31T00:11:24.735Z,97157.16
2023-03-31T00:13:54.466Z,97152.84
2023-03-31T00:16:23.011Z,97157.28
2023-03-31T00:18:51.796Z,97146.06
2023-03-31T00:21:33.900Z,97148.38
2023-03-31T00:24:07.749Z,97143.91
2023-03-31T00:26:36.672Z,97139.75
2023-03-31T00:29:09.524Z,97130.31
2023-03-31T00:31:38.971Z,97122.53
2023-03-31T00:34:08.064Z,97123.50
2023-03-31T00:36:47.548Z,97113.22
2023-03-31T00:39:21.429Z,97109.06
2023-03-31T00:41:50.465Z,97109.06
2023-03-31T00:44:24.780Z,97108.06
2023-03-31T00:46:56.827Z,97105.59
2023-03-31T00:49:31.193Z,97095.31
2023-03-31T00:52:05.718Z,97091.53
2023-03-31T00:54:37.288Z,97092.34
2023-03-31T00:57:07.772Z,97085.25
2023-03-31T00:59:42.519Z,97078.31
2023-03-31T01:02:14.271Z,97083.59
2023-03-31T01:04:50.312Z,97077.47
2023-03-31T01:07:25.816Z,97072.16
2023-03-31T01:10:00.332Z,97070.34
2023-03-31T01:12:29.390Z,97066.88
2023-03-31T01:14:59.237Z,97059.94
2023-03-31T01:17:29.938Z,97060.56
2023-03-31T01:20:14.673Z,97056.28
2023-03-31T01:23:45.937Z,97055.59
2023-03-31T01:26:51.168Z,97043.66
2023-03-31T01:29:52.724Z,97035.72
2023-03-31T01:33:02.605Z,97039.38
2023-03-31T01:36:21.234Z,97032.56
2023-03-31T01:39:41.505Z,97031.06
2023-03-31T01:42:16.553Z,97025.94
2023-03-31T01:44:48.456Z,97028.56
2023-03-31T01:47:23.135Z,97032.72
2023-03-31T01:50:08.777Z,97023.97
2023-03-31T01:52:44.089Z,97010.03
2023-03-31T01:55:17.706Z,97009.19
2023-03-31T01:57:53.018Z,96998.78
2023-03-31T02:00:29.517Z,97001.56
2023-03-31T02:03:08.084Z,96999.94
2023-03-31T02:05:41.996Z,96997.44
2023-03-31T02:08:14.723Z,96988.16
2023-03-31T02:10:48.298Z,96990.97
2023-03-31T02:13:20.336Z,96989.47
2023-03-31T02:15:54.075Z,96991.44
2023-03-31T02:18:30.634Z,96985.47
2023-03-31T02:21:06.214Z,96977.53
2023-03-31T02:23:35.870Z,96972.38
2023-03-31T02:26:09.584Z,96972.38
2023-03-31T02:28:39.695Z,96973.38
2023-03-31T02:31:23.430Z,96965.75
2023-03-31T02:33:51.776Z,96967.56
2023-03-31T02:36:21.522Z,96972.88
2023-03-31T02:38:56.502Z,96960.63
2023-03-31T02:41:25.141Z,96960.63
2023-03-31T02:43:54.902Z,96958.13
2023-03-31T02:46:23.903Z,96948.56
2023-03-31T02:48:56.705Z,96947.72
2023-03-31T02:51:57.566Z,96947.03
2023-03-31T02:55:16.188Z,96935.81
2023-03-31T02:58:18.949Z,96927.50
2023-03-31T03:01:06.004Z,96926.00
2023-03-31T03:03:45.910Z,96924.00
2023-03-31T03:06:31.703Z,96920.56
2023-03-31T03:09:13.006Z,96918.88
2023-03-31T03:11:50.005Z,96918.22
2023-03-31T03:14:29.242Z,96923.50
2023-03-31T03:17:03.386Z,96920.88
2023-03-31T03:19:31.776Z,96911.09
2023-03-31T03:22:00.214Z,96917.38
2023-03-31T03:24:29.699Z,96913.75
2023-03-31T03:26:58.580Z,96910.13
2023-03-31T03:29:27.192Z,96905.66
2023-03-31T03:31:55.536Z,96902.84
2023-03-31T03:34:25.713Z,96898.25
2023-03-31T03:36:54.142Z,96892.25
2023-03-31T03:39:22.702Z,96893.09
2023-03-31T03:41:53.380Z,96887.13
2023-03-31T03:44:21.635Z,96883.38
2023-03-31T03:46:49.982Z,96885.00
2023-03-31T03:49:18.565Z,96880.56
2023-03-31T03:51:48.384Z,96882.19
2023-03-31T03:54:16.907Z,96877.75
2023-03-31T03:56:45.351Z,96868.81
2023-03-31T03:59:16.671Z,96865.19
2023-03-31T04:01:47.731Z,96856.28
2023-03-31T04:04:16.567Z,96850.97
2023-03-31T04:06:44.835Z,96845.69
2023-03-31T04:09:14.458Z,96850.81
2023-03-31T04:11:43.012Z,96848.19
2023-03-31T04:14:11.326Z,96872.47
2023-03-31T04:16:40.651Z,96885.06
2023-03-31T04:19:11.498Z,96872.63
2023-03-31T04:21:45.519Z,96870.81
2023-03-31T04:24:21.690Z,96878.44
2023-03-31T04:26:53.433Z,96874.00
2023-03-31T04:29:22.634Z,96860.59
2023-03-31T04:31:52.710Z,96863.09
2023-03-31T04:34:22.226Z,96861.09
2023-03-31T04:36:56.847Z,96863.56
2023-03-31T04:39:30.594Z,96850.19
2023-03-31T04:42:01.753Z,96849.38
2023-03-31T04:44:30.688Z,96845.72
2023-03-31T04:47:02.934Z,96849.22
2023-03-31T04:49:33.612Z,96840.28
2023-03-31T04:52:02.104Z,96836.47
2023-03-31T04:54:34.456Z,96839.94
2023-03-31T04:57:02.800Z,96833.66
2023-03-31T04:59:31.035Z,96840.44
2023-03-31T05:01:59.311Z,96852.53
2023-03-31T05:04:27.628Z,96845.41
2023-03-31T05:06:56.505Z,96842.59
2023-03-31T05:09:24.833Z,96836.97
2023-03-31T05:11:54.480Z,96819.28
2023-03-31T05:14:22.836Z,96807.72
2023-03-31T05:16:51.591Z,96796.16
2023-03-31T05:19:19.897Z,96795.47
2023-03-31T05:21:48.993Z,96791.81
2023-03-31T05:24:17.377Z,96783.72
2023-03-31T05:26:49.811Z,96775.44
2023-03-31T05:29:22.895Z,96775.44
2023-03-31T05:31:51.458Z,96773.31
2023-03-31T05:34:19.770Z,96784.75
2023-03-31T05:36:50.530Z,96778.28
2023-03-31T05:39:18.829Z,96768.53
2023-03-31T05:41:47.136Z,96760.25
2023-03-31T05:44:15.689Z,96744.69
2023-03-31T05:46:45.469Z,96735.09
2023-03-31T05:49:16.278Z,96727.97
2023-03-31T05:51:44.568Z,96720.22
2023-03-31T05:54:13.062Z,96708.28
2023-03-31T05:56:41.762Z,96700.50
2023-03-31T05:59:10.109Z,96693.19
2023-03-31T06:01:38.482Z,96681.13
2023-03-31T06:04:08.400Z,96679.78
2023-03-31T06:06:38.131Z,96668.00
2023-03-31T06:09:07.381Z,96666.88
2023-03-31T06:11:35.959Z,96656.25
2023-03-31T06:14:04.293Z,96639.00
2023-03-31T06:16:35.114Z,96630.06
2023-03-31T06:19:03.563Z,96623.44
2023-03-31T06:21:33.582Z,96617.66
2023-03-31T06:24:02.052Z,96610.19
2023-03-31T06:26:30.470Z,96610.38
2023-03-31T06:28:58.930Z,96597.91
2023-03-31T06:31:27.546Z,96587.97
2023-03-31T06:33:55.835Z,96567.63
2023-03-31T06:36:24.372Z,96567.63
2023-03-31T06:38:54.889Z,96564.81
2023-03-31T06:41:23.355Z,96554.03
2023-03-31T06:43:51.739Z,96556.69
2023-03-31T06:46:20.513Z,96548.56
2023-03-31T06:48:48.928Z,96547.38
2023-03-31T06:51:17.562Z,96549.66
2023-03-31T06:53:45.921Z,96551.97
2023-03-31T06:56:15.559Z,96541.38
2023-03-31T06:58:43.859Z,96537.84
2023-03-31T07:01:12.552Z,96526.06
2023-03-31T07:03:41.159Z,96507.16
2023-03-31T07:06:09.642Z,96520.72
2023-03-31T07:08:40.667Z,96502.59
2023-03-31T07:11:09.430Z,96497.78
2023-03-31T07:13:39.391Z,96491.94
2023-03-31T07:16:10.032Z,96488.78
2023-03-31T07:18:42.088Z,96486.41
2023-03-31T07:21:13.409Z,96477.72
2023-03-31T07:23:41.869Z,96487.78
2023-03-31T07:26:11.467Z,96495.22
2023-03-31T07:28:41.072Z,96472.47
2023-03-31T07:31:13.716Z,96483.69
2023-03-31T07:33:42.394Z,96494.47
2023-03-31T07:36:13.978Z,96493.94
2023-03-31T07:38:44.153Z,96492.72
2023-03-31T07:41:14.329Z,96500.50
2023-03-31T07:43:44.561Z,96509.78
2023-03-31T07:46:18.883Z,96527.16
2023-03-31T07:48:48.147Z,96542.91
2023-03-31T07:51:18.320Z,96561.47
2023-03-31T07:53:47.236Z,96568.25
2023-03-31T07:56:17.028Z,96582.19
2023-03-31T07:58:47.613Z,96590.59
2023-03-31T08:01:19.056Z,96605.34
2023-03-31T08:03:48.736Z,96606.81
2023-03-31T08:06:20.562Z,96605.97
2023-03-31T08:08:49.096Z,96606.34
2023-03-31T08:11:17.423Z,96613.69
2023-03-31T08:13:47.091Z,96612.66
2023-03-31T08:16:15.620Z,96628.59
2023-03-31T08:18:44.005Z,96626.78
2023-03-31T08:21:12.372Z,96630.06
2023-03-31T08:23:40.794Z,96616.34
2023-03-31T08:26:11.940Z,96612.22
2023-03-31T08:28:40.748Z,96597.94
2023-03-31T08:31:11.821Z,96581.81
2023-03-31T08:33:40.673Z,96537.72
2023-03-31T08:36:11.129Z,96514.63
2023-03-31T08:38:41.774Z,96490.56
2023-03-31T08:41:37.579Z,96457.69
2023-03-31T08:44:12.721Z,96457.31
2023-03-31T08:46:43.770Z,96465.75
2023-03-31T08:49:16.830Z,96461.09
2023-03-31T08:51:50.196Z,96475.66
2023-03-31T08:54:29.852Z,96467.50
2023-03-31T08:56:58.812Z,96453.88
2023-03-31T08:59:31.386Z,96440.22
2023-03-31T09:02:13.520Z,96448.66
2023-03-31T09:05:14.414Z,96433.16
2023-03-31T09:07:53.097Z,96421.34
2023-03-31T09:10:45.091Z,96418.34
2023-03-31T09:13:34.655Z,96414.47
2023-03-31T09:16:14.848Z,96417.41
2023-03-31T09:18:46.759Z,96416.00
2023-03-31T09:21:24.184Z,96427.91
2023-03-31T09:23:59.872Z,96445.28
2023-03-31T09:26:36.718Z,96467.19
2023-03-31T09:29:14.505Z,96469.47
2023-03-31T09:31:45.692Z,96490.56
2023-03-31T09:34:18.699Z,96504.28
2023-03-31T09:36:47.617Z,96500.25
2023-03-31T09:39:16.658Z,96530.13
2023-03-31T09:41:49.237Z,96574.09
2023-03-31T09:44:27.940Z,96510.97
2023-03-31T09:46:57.297Z,96476.63
2023-03-31T09:49:30.308Z,96429.59
2023-03-31T09:52:07.012Z,96431.25
2023-03-31T09:54:43.200Z,96431.69
2023-03-31T09:57:27.127Z,96437.44
2023-03-31T10:00:05.461Z,96431.56
2023-03-31T10:02:40.693Z,96430.03
2023-03-31T10:05:26.836Z,96411.69
2023-03-31T10:08:15.976Z,96402.00
2023-03-31T10:10:49.270Z,96396.22
2023-03-31T10:13:21.482Z,96386.34
2023-03-31T10:15:54.520Z,96367.66
2023-03-31T10:18:34.249Z,96356.34
2023-03-31T10:21:05.933Z,96360.63
2023-03-31T10:23:36.699Z,96348.97
2023-03-31T10:26:06.149Z,96342.50
2023-03-31T10:28:37.067Z,96344.78
2023-03-31T10:31:08.521Z,96345.28
2023-03-31T10:33:45.324Z,96336.88
2023-03-31T10:36:23.969Z,96336.47
2023-03-31T10:38:53.444Z,96341.38
2023-03-31T10:41:25.341Z,96350.53
2023-03-31T10:44:01.253Z,96330.19
2023-03-31T10:46:44.475Z,96336.69
2023-03-31T10:49:17.652Z,96323.00
2023-03-31T10:51:56.172Z,96311.28
2023-03-31T10:54:24.585Z,96305.38
2023-03-31T10:56:56.544Z,96313.78
2023-03-31T10:59:51.853Z,96303.41
2023-03-31T11:03:02.956Z,96273.41
2023-03-31T11:05:35.777Z,96261.06
2023-03-31T11:08:28.335Z,96245.41
2023-03-31T11:11:24.229Z,96243.94
2023-03-31T11:14:01.300Z,96232.59
2023-03-31T11:16:41.372Z,96244.72
2023-03-31T11:19:24.093Z,96236.44
2023-03-31T11:22:04.259Z,96251.78
2023-03-31T11:25:10.604Z,96242.69
2023-03-31T11:27:58.778Z,96256.00
2023-03-31T11:30:33.621Z,96254.00
2023-03-31T11:33:37.045Z,96246.56
2023-03-31T11:36:22.232Z,96231.97
2023-03-31T11:39:09.285Z,96221.34
2023-03-31T11:41:43.433Z,96217.63
2023-03-31T11:44:14.404Z,96224.72
2023-03-31T11:46:49.518Z,96221.94
2023-03-31T11:49:22.400Z,96230.78
2023-03-31T11:51:54.750Z,96235.94
2023-03-31T11:54:31.720Z,96235.38
2023-03-31T11:57:08.388Z,96220.50
2023-03-31T11:59:37.541Z,96242.25
2023-03-31T12:02:16.566Z,96229.50
2023-03-31T12:04:48.772Z,96215.16
2023-03-31T12:07:25.786Z,96190.41
2023-03-31T12:10:05.713Z,96153.53
2023-03-31T12:12:40.577Z,96165.22
2023-03-31T12:15:20.891Z,96166.72
2023-03-31T12:17:57.401Z,96161.03
2023-03-31T12:20:33.561Z,96163.72
2023-03-31T12:23:05.585Z,96151.31
2023-03-31T12:25:46.619Z,96139.19
2023-03-31T12:28:18.325Z,96129.84
2023-03-31T12:30:48.823Z,96122.59
2023-03-31T12:33:23.789Z,96106.00
2023-03-31T12:36:13.656Z,96091.28
2023-03-31T12:39:00.119Z,96093.25
2023-03-31T12:41:39.450Z,96099.31
2023-03-31T12:44:28.207Z,96096.38
2023-03-31T12:47:33.639Z,96081.22
2023-03-31T12:50:19.182Z,96072.09
2023-03-31T12:52:54.118Z,96052.22
2023-03-31T12:55:34.938Z,96065.66
2023-03-31T12:58:45.523Z,96078.75
2023-03-31T13:01:21.595Z,96060.44
2023-03-31T13:04:11.217Z,96067.34
2023-03-31T13:07:04.672Z,96069.47
2023-03-31T13:09:53.955Z,96057.34
2023-03-31T13:12:25.655Z,96073.22
2023-03-31T13:14:59.028Z,96088.28
2023-03-31T13:17:33.054Z,96093.06
2023-03-31T13:20:28.097Z,96082.22
2023-03-31T13:23:04.299Z,96076.84
2023-03-31T13:25:51.817Z,96067.06
2023-03-31T13:28:44.900Z,96038.50
2023-03-31T13:31:15.950Z,96032.66
2023-03-31T13:33:58.581Z,96013.44
2023-03-31T13:36:52.890Z,96020.88
2023-03-31T13:40:09.307Z,96017.72
2023-03-31T13:43:12.788Z,96031.31
2023-03-31T13:45:56.462Z,96035.19
2023-03-31T13:48:54.494Z,96041.34
2023-03-31T13:51:42.289Z,96056.66
2023-03-31T13:54:52.078Z,96053.97
2023-03-31T13:57:57.580Z,96047.31
2023-03-31T14:00:41.961Z,96019.91
2023-03-31T14:03:47.557Z,96024.94
2023-03-31T14:06:26.548Z,96037.50
2023-03-31T14:08:59.254Z,96044.97
2023-03-31T14:11:29.723Z,96077.81
2023-03-31T14:14:07.788Z,96098.06
2023-03-31T14:16:39.969Z,96091.53
2023-03-31T14:19:43.570Z,96117.22
2023-03-31T14:22:32.232Z,96132.34
2023-03-31T14:25:13.968Z,96120.38
2023-03-31T14:27:58.476Z,96126.09
2023-03-31T14:30:42.423Z,96118.97
2023-03-31T14:33:27.523Z,96113.63
2023-03-31T14:36:02.824Z,96105.59
2023-03-31T14:38:32.272Z,96119.31
2023-03-31T14:41:01.995Z,96120.31
2023-03-31T14:43:34.659Z,96119.03
2023-03-31T14:46:05.800Z,96117.69
2023-03-31T14:48:36.599Z,96114.34
2023-03-31T14:51:10.930Z,96121.31
2023-03-31T14:53:39.845Z,96132.63
2023-03-31T14:56:14.020Z,96143.94
2023-03-31T14:58:45.926Z,96174.19
2023-03-31T15:01:18.445Z,96170.06
2023-03-31T15:03:47.918Z,96164.94
2023-03-31T15:06:17.660Z,96158.97
2023-03-31T15:08:46.709Z,96153.59
2023-03-31T15:11:20.908Z,96151.59
2023-03-31T15:14:03.444Z,96143.63
2023-03-31T15:16:42.345Z,96140.00
2023-03-31T15:19:17.354Z,96141.50
2023-03-31T15:21:46.371Z,96147.06
2023-03-31T15:24:15.918Z,96150.56
2023-03-31T15:26:51.532Z,96150.56
2023-03-31T15:29:24.357Z,96147.44
2023-03-31T15:31:52.879Z,96138.94
2023-03-31T15:34:27.936Z,96135.81
2023-03-31T15:36:58.010Z,96131.47
2023-03-31T15:39:28.849Z,96132.63
2023-03-31T15:42:00.002Z,96127.06
2023-03-31T15:44:39.516Z,96126.00
2023-03-31T15:47:25.363Z,96122.53
2023-03-31T15:49:57.260Z,96125.44
2023-03-31T15:52:33.966Z,96120.06
2023-03-31T15:55:03.555Z,96125.66
2023-03-31T15:57:37.219Z,96125.06
2023-03-31T16:00:08.208Z,96123.44
2023-03-31T16:02:44.519Z,96118.97
2023-03-31T16:05:37.434Z,96123.72
2023-03-31T16:08:16.822Z,96120.31
2023-03-31T16:10:45.773Z,96114.13
2023-03-31T16:13:23.163Z,96110.34
2023-03-31T16:15:55.233Z,96094.81
2023-03-31T16:18:32.200Z,96098.59
2023-03-31T16:21:03.535Z,96094.72
2023-03-31T16:23:35.123Z,96089.59
2023-03-31T16:26:03.809Z,96088.19
2023-03-31T16:28:41.590Z,96085.72
2023-03-31T16:31:34.367Z,96095.03
2023-03-31T16:34:04.399Z,96098.72
2023-03-31T16:36:32.766Z,96102.44
2023-03-31T16:39:04.984Z,96105.34
2023-03-31T16:41:34.205Z,96106.59
2023-03-31T16:44:04.465Z,96112.41
2023-03-31T16:46:32.958Z,96101.50
2023-03-31T16:49:01.417Z,96092.72
2023-03-31T16:51:29.766Z,96095.47
2023-03-31T16:53:59.408Z,96106.00
2023-03-31T16:56:28.295Z,96120.50
2023-03-31T16:58:56.678Z,96141.13
2023-03-31T17:01:26.452Z,96164.41
2023-03-31T17:03:55.112Z,96172.69
2023-03-31T17:06:23.589Z,96185.72
2023-03-31T17:08:51.962Z,96193.56
2023-03-31T17:11:20.402Z,96174.47
2023-03-31T17:13:49.082Z,96169.81
2023-03-31T17:16:24.455Z,96177.03
2023-03-31T17:18:58.971Z,96172.53
2023-03-31T17:21:30.175Z,96167.47
2023-03-31T17:24:00.222Z,96168.31
2023-03-31T17:26:30.019Z,96173.25
2023-03-31T17:29:01.679Z,96168.16
2023-03-31T17:31:30.660Z,96174.53
2023-03-31T17:34:01.424Z,96180.91
2023-03-31T17:36:29.906Z,96188.31
2023-03-31T17:39:00.183Z,96199.00
2023-03-31T17:41:30.414Z,96192.00
2023-03-31T17:43:59.118Z,96184.00
2023-03-31T17:46:27.669Z,96189.16
2023-03-31T17:48:58.353Z,96186.28
2023-03-31T17:51:28.967Z,96185.25
2023-03-31T17:53:57.558Z,96191.19
2023-03-31T17:56:27.557Z,96199.59
2023-03-31T17:58:57.321Z,96194.28
2023-03-31T18:01:25.646Z,96199.22
2023-03-31T18:03:56.150Z,96201.66
2023-03-31T18:06:25.680Z,96208.41
2023-03-31T18:08:57.049Z,96210.88
2023-03-31T18:11:26.009Z,96203.47
2023-03-31T18:13:54.377Z,96203.50
2023-03-31T18:16:22.820Z,96203.28
2023-03-31T18:18:51.180Z,96211.03
2023-03-31T18:21:19.691Z,96211.03
2023-03-31T18:23:52.572Z,96221.91
2023-03-31T18:26:24.615Z,96218.81
2023-03-31T18:28:53.173Z,96218.78
2023-03-31T18:31:22.583Z,96217.53
2023-03-31T18:33:52.305Z,96232.25
2023-03-31T18:36:22.970Z,96226.69
2023-03-31T18:38:53.352Z,96238.78
2023-03-31T18:41:23.767Z,96231.38
2023-03-31T18:43:52.316Z,96241.00
2023-03-31T18:46:21.351Z,96251.19
2023-03-31T18:48:50.340Z,96251.56
2023-03-31T18:51:19.264Z,96256.47
2023-03-31T18:53:47.682Z,96256.03
2023-03-31T18:56:16.115Z,96255.00
2023-03-31T18:58:45.974Z,96272.13
2023-03-31T19:01:14.367Z,96275.19
2023-03-31T19:03:44.450Z,96277.63
2023-03-31T19:06:13.212Z,96274.53
2023-03-31T19:08:41.957Z,96281.22
2023-03-31T19:11:12.816Z,96278.94
2023-03-31T19:13:42.872Z,96275.69
2023-03-31T19:16:13.748Z,96270.75
2023-03-31T19:18:43.228Z,96284.44
2023-03-31T19:21:11.984Z,96282.53
2023-03-31T19:23:40.762Z,96279.06
2023-03-31T19:26:09.163Z,96284.75
2023-03-31T19:28:37.487Z,96286.97
2023-03-31T19:31:06.554Z,96285.34
2023-03-31T19:33:36.449Z,96288.34
2023-03-31T19:36:05.681Z,96285.00
2023-03-31T19:38:36.668Z,96286.03
2023-03-31T19:41:06.350Z,96287.41
2023-03-31T19:43:37.749Z,96276.75
2023-03-31T19:46:06.474Z,96281.41
2023-03-31T19:48:37.582Z,96278.13
2023-03-31T19:51:07.327Z,96281.53
2023-03-31T19:53:38.101Z,96279.91
2023-03-31T19:56:09.091Z,96271.09
2023-03-31T19:58:38.663Z,96261.63
2023-03-31T20:01:09.475Z,96267.94
2023-03-31T20:03:39.310Z,96267.50
2023-03-31T20:06:09.798Z,96259.31
2023-03-31T20:08:39.518Z,96259.50
2023-03-31T20:11:11.251Z,96258.03
2023-03-31T20:13:40.137Z,96256.75
2023-03-31T20:16:11.185Z,96260.44
2023-03-31T20:18:43.587Z,96263.47
2023-03-31T20:21:14.683Z,96266.31
2023-03-31T20:23:44.531Z,96265.66
2023-03-31T20:26:15.399Z,96266.03
2023-03-31T20:28:44.372Z,96277.69
2023-03-31T20:31:16.078Z,96284.22
2023-03-31T20:33:46.517Z,96288.03
2023-03-31T20:36:18.112Z,96279.28
2023-03-31T20:38:51.113Z,96287.44
2023-03-31T20:41:21.793Z,96284.13
2023-03-31T20:43:50.599Z,96288.59
2023-03-31T20:46:19.269Z,96288.00
2023-03-31T20:48:51.448Z,96282.22
2023-03-31T20:51:22.125Z,96288.56
2023-03-31T20:53:53.170Z,96280.97
2023-03-31T20:56:23.667Z,96294.03
2023-03-31T20:58:53.689Z,96295.41
2023-03-31T21:01:23.645Z,96284.97
2023-03-31T21:03:54.717Z,96299.44
2023-03-31T21:06:23.884Z,96298.63
2023-03-31T21:08:54.403Z,96293.44
2023-03-31T21:11:24.164Z,96294.28
2023-03-31T21:13:53.357Z,96289.34
2023-03-31T21:16:23.105Z,96293.81
2023-03-31T21:18:54.957Z,96285.00
2023-03-31T21:21:24.836Z,96281.56
2023-03-31T21:23:53.592Z,96278.06
2023-03-31T21:26:22.934Z,96289.69
2023-03-31T21:28:54.329Z,96307.81
2023-03-31T21:31:25.334Z,96292.91
2023-03-31T21:33:57.758Z,96303.53
2023-03-31T21:36:26.782Z,96299.03
2023-03-31T21:38:56.603Z,96294.56
2023-03-31T21:41:27.188Z,96296.19
2023-03-31T21:43:55.854Z,96286.22
2023-03-31T21:46:27.446Z,96289.69
2023-03-31T21:48:57.621Z,96287.06
2023-03-31T21:51:26.681Z,96292.00
2023-03-31T21:53:56.460Z,96287.47
2023-03-31T21:56:27.689Z,96283.84
2023-03-31T21:58:57.093Z,96291.81
2023-03-31T22:01:25.496Z,96292.78
2023-03-31T22:03:53.863Z,96292.97
2023-03-31T22:06:23.620Z,96285.19
2023-03-31T22:08:51.939Z,96287.06
2023-03-31T22:11:20.218Z,96288.03
2023-03-31T22:13:48.478Z,96283.94
2023-03-31T22:16:19.570Z,96290.44
2023-03-31T22:18:50.333Z,96277.38
2023-03-31T22:21:22.918Z,96278.88
2023-03-31T22:23:53.558Z,96276.59
2023-03-31T22:26:22.733Z,96275.97
2023-03-31T22:28:51.340Z,96278.81
2023-03-31T22:31:20.691Z,96289.59
2023-03-31T22:33:49.544Z,96281.66
2023-03-31T22:36:17.902Z,96278.34
2023-03-31T22:38:47.627Z,96280.34
2023-03-31T22:41:15.931Z,96283.00
2023-03-31T22:43:45.994Z,96269.13
2023-03-31T22:46:15.887Z,96273.78
2023-03-31T22:48:44.374Z,96278.44
2023-03-31T22:51:13.261Z,96272.50
2023-03-31T22:53:41.745Z,96272.03
2023-03-31T22:56:13.400Z,96278.53
2023-03-31T22:58:41.684Z,96279.75
2023-03-31T23:01:15.604Z,96274.81
2023-03-31T23:03:44.723Z,96272.72
2023-03-31T23:06:14.045Z,96280.84
2023-03-31T23:08:43.732Z,96275.06
2023-03-31T23:11:14.656Z,96277.91
2023-03-31T23:13:43.168Z,96272.78
2023-03-31T23:16:15.644Z,96276.63
2023-03-31T23:18:46.155Z,96276.81
2023-03-31T23:21:16.196Z,96273.69
2023-03-31T23:23:44.514Z,96278.34
2023-03-31T23:26:15.813Z,96269.13
2023-03-31T23:28:45.480Z,96261.72
2023-03-31T23:31:14.717Z,96264.19
2023-03-31T23:33:43.246Z,96262.53
2023-03-31T23:36:17.044Z,96266.34
2023-03-31T23:38:46.520Z,96265.38
2023-03-31T23:41:16.996Z,96258.59
2023-03-31T23:43:45.789Z,96253.94
2023-03-31T23:46:14.634Z,96260.88
2023-03-31T23:48:43.080Z,96247.72
2023-03-31T23:51:12.640Z,96248.00
2023-03-31T23:53:41.157Z,96255.13
2023-03-31T23:56:15.849Z,96245.53
2023-03-31T23:58:45.109Z,96251.66
